createdAt,value
2023-02-19T00:05:08.182Z,85.2
2023-02-19T00:11:06.010Z,85.1
2023-02-19T00:17:05.420Z,84.7
2023-02-19T00:23:05.201Z,85
2023-02-19T00:29:06.103Z,85.1
2023-02-19T00:35:06.554Z,84.7
2023-02-19T00:41:05.320Z,85.1
2023-02-19T00:47:05.333Z,85.3
2023-02-19T00:53:05.732Z,85.1
2023-02-19T00:59:05.187Z,84.6
2023-02-19T01:05:07.680Z,84.3
2023-02-19T01:11:05.243Z,84
2023-02-19T01:17:05.263Z,84
2023-02-19T01:23:06.172Z,84
2023-02-19T01:29:06.234Z,83.6
2023-02-19T01:35:07.046Z,83.4
2023-02-19T01:41:05.323Z,83.1
2023-02-19T01:47:05.613Z,83.1
2023-02-19T01:53:05.421Z,82.8
2023-02-19T01:59:05.889Z,82.2
2023-02-19T02:05:05.655Z,82.2
2023-02-19T02:11:05.097Z,82.2
2023-02-19T02:17:05.196Z,82.4
2023-02-19T02:23:04.721Z,82.4
2023-02-19T02:29:04.899Z,82.4
2023-02-19T02:35:05.954Z,82.4
2023-02-19T02:41:05.727Z,80.6
2023-02-19T02:47:06.767Z,80.8
2023-02-19T02:53:06.100Z,80.8
2023-02-19T02:59:05.311Z,81.4
2023-02-19T03:05:06.779Z,81.5
2023-02-19T03:11:05.979Z,81.5
2023-02-19T03:17:05.363Z,82.6
2023-02-19T03:23:05.370Z,83.3
2023-02-19T03:29:04.951Z,84
2023-02-19T03:35:05.945Z,83.9
2023-02-19T03:41:05.078Z,84.6
2023-02-19T03:47:05.198Z,84
2023-02-19T03:53:05.193Z,83.3
2023-02-19T03:59:05.083Z,83.3
2023-02-19T04:05:07.342Z,83.1
2023-02-19T04:11:05.608Z,83.3
2023-02-19T04:17:05.416Z,83.2
2023-02-19T04:23:05.301Z,82.8
2023-02-19T04:29:05.338Z,82.4
2023-02-19T04:35:05.425Z,82
2023-02-19T04:41:06.513Z,82.7
2023-02-19T04:47:05.195Z,83.3
2023-02-19T04:53:05.568Z,83
2023-02-19T04:59:05.573Z,82.7
2023-02-19T05:05:06.865Z,82.8
2023-02-19T05:11:05.148Z,83.2
2023-02-19T05:17:05.594Z,82.9
2023-02-19T05:23:05.869Z,82.4
2023-02-19T05:29:05.540Z,82.6
2023-02-19T05:35:08.510Z,83.2
2023-02-19T05:41:05.762Z,83.4
2023-02-19T05:47:05.849Z,83.4
2023-02-19T05:53:05.187Z,83.4
2023-02-19T05:59:05.351Z,83.5
2023-02-19T06:05:07.835Z,83.2
2023-02-19T06:11:05.901Z,83.2
2023-02-19T06:17:05.341Z,82.7
2023-02-19T06:23:06.362Z,83.3
2023-02-19T06:29:06.126Z,83.1
2023-02-19T06:35:06.654Z,83.3
2023-02-19T06:41:05.464Z,83.3
2023-02-19T06:47:05.421Z,83.2
2023-02-19T06:53:05.704Z,83.2
2023-02-19T06:59:06.233Z,83.4
2023-02-19T07:05:09.697Z,82.6
2023-02-19T07:11:05.234Z,82.2
2023-02-19T07:17:05.121Z,82.3
2023-02-19T07:23:05.942Z,81.3
2023-02-19T07:29:05.437Z,81.5
2023-02-19T07:35:06.945Z,81.2
2023-02-19T07:41:05.764Z,81.1
2023-02-19T07:47:06.017Z,82.2
2023-02-19T07:53:06.449Z,82.8
2023-02-19T07:59:06.636Z,83.5
2023-02-19T08:05:06.892Z,84.1
2023-02-19T08:11:06.165Z,84.2
2023-02-19T08:17:05.652Z,83.9
2023-02-19T08:23:06.234Z,83.6
2023-02-19T08:29:06.766Z,83.3
2023-02-19T08:35:08.764Z,83
2023-02-19T08:41:05.427Z,82.7
2023-02-19T08:47:05.273Z,82.3
2023-02-19T08:53:05.666Z,82.6
2023-02-19T08:59:06.379Z,82.2
2023-02-19T09:05:06.388Z,82.1
2023-02-19T09:11:05.795Z,80.6
2023-02-19T09:17:06.010Z,80.1
2023-02-19T09:23:05.218Z,80.3
2023-02-19T09:29:06.385Z,79.5
2023-02-19T09:35:05.433Z,79.4
2023-02-19T09:41:05.412Z,78.8
2023-02-19T09:47:05.186Z,78.3
2023-02-19T09:53:05.473Z,77.3
2023-02-19T09:59:04.995Z,76.9
2023-02-19T10:05:06.333Z,77
2023-02-19T10:11:05.592Z,77.2
2023-02-19T10:17:05.561Z,77
2023-02-19T10:23:05.422Z,77.6
2023-02-19T10:29:05.182Z,78
2023-02-19T10:35:07.702Z,78.1
2023-02-19T10:41:05.091Z,78.4
2023-02-19T10:47:05.147Z,78.5
2023-02-19T10:53:05.606Z,78.7
2023-02-19T10:59:05.274Z,78.1
2023-02-19T11:05:05.619Z,76.7
2023-02-19T11:11:05.037Z,78.2
2023-02-19T11:17:06.041Z,79.2
2023-02-19T11:23:05.278Z,80.1
2023-02-19T11:29:05.568Z,79.3
2023-02-19T11:35:06.622Z,79.3
2023-02-19T11:41:05.121Z,74.9
2023-02-19T11:47:04.896Z,76
2023-02-19T11:53:04.789Z,74.8
2023-02-19T11:59:05.381Z,74.8
2023-02-19T12:05:04.828Z,74.8
2023-02-19T12:11:04.735Z,74.3
2023-02-19T12:17:04.821Z,73.3
2023-02-19T12:23:05.068Z,73.3
2023-02-19T12:29:04.847Z,73.3
2023-02-19T12:35:04.850Z,73.4
2023-02-19T12:41:05.107Z,73
2023-02-19T12:47:05.046Z,74.2
2023-02-19T12:53:05.146Z,73.4
2023-02-19T12:59:06.210Z,73.4
2023-02-19T13:05:06.103Z,72.6
2023-02-19T13:11:05.613Z,72.3
2023-02-19T13:17:05.430Z,71.8
2023-02-19T13:23:05.217Z,71.5
2023-02-19T13:29:05.044Z,71.5
2023-02-19T13:35:04.936Z,71.5
2023-02-19T13:41:05.262Z,71.5
2023-02-19T13:47:05.304Z,74.1
2023-02-19T13:53:05.095Z,74.2
2023-02-19T13:59:04.756Z,74.2
2023-02-19T14:05:05.292Z,79.4
2023-02-19T14:11:05.161Z,81.1
2023-02-19T14:17:04.984Z,81.3
2023-02-19T14:23:04.867Z,81.6
2023-02-19T14:29:04.906Z,80.5
2023-02-19T14:35:07.726Z,80.5
2023-02-19T14:41:06.049Z,80.9
2023-02-19T14:47:05.496Z,81.2
2023-02-19T14:53:05.393Z,81
2023-02-19T14:59:05.297Z,80.6
2023-02-19T15:05:07.884Z,80
2023-02-19T15:11:05.784Z,79.9
2023-02-19T15:17:06.176Z,76.4
2023-02-19T15:23:05.345Z,76.2
2023-02-19T15:29:05.848Z,76.5
2023-02-19T15:35:05.524Z,75.4
2023-02-19T15:41:06.621Z,76.3
2023-02-19T15:47:05.368Z,76.3
2023-02-19T15:53:06.654Z,76.1
2023-02-19T15:59:05.451Z,75.4
2023-02-19T16:05:06.851Z,75.4
2023-02-19T16:11:05.273Z,74.7
2023-02-19T16:17:05.692Z,74.7
2023-02-19T16:23:05.827Z,74.7
2023-02-19T16:29:05.743Z,74.4
2023-02-19T16:35:06.150Z,73.6
2023-02-19T16:41:05.323Z,73.6
2023-02-19T16:47:05.235Z,73.6
2023-02-19T16:53:06.009Z,73.8
2023-02-19T16:59:05.636Z,73.8
2023-02-19T17:05:08.197Z,73.7
2023-02-19T17:11:05.542Z,73.6
2023-02-19T17:17:05.974Z,73.4
2023-02-19T17:23:06.477Z,73.2
2023-02-19T17:29:06.141Z,73.7
2023-02-19T17:35:08.333Z,74
2023-02-19T17:41:05.801Z,74.6
2023-02-19T17:47:05.759Z,74.5
2023-02-19T17:53:05.776Z,75.1
2023-02-19T17:59:05.555Z,75.1
2023-02-19T18:05:06.477Z,75.5
2023-02-19T18:11:05.891Z,74.4
2023-02-19T18:17:05.307Z,74
2023-02-19T18:23:05.352Z,74.1
2023-02-19T18:29:06.001Z,75.4
2023-02-19T18:35:07.330Z,74.7
2023-02-19T18:41:05.204Z,72.9
2023-02-19T18:47:05.508Z,73.1
2023-02-19T18:53:06.321Z,72.1
2023-02-19T18:59:05.269Z,71.8
2023-02-19T19:05:07.285Z,71.8
2023-02-19T19:11:06.523Z,71.7
2023-02-19T19:17:05.275Z,71.9
2023-02-19T19:23:06.407Z,71.6
2023-02-19T19:29:05.790Z,72.1
2023-02-19T19:35:07.448Z,71.9
2023-02-19T19:41:05.598Z,72.3
2023-02-19T19:47:05.604Z,72.4
2023-02-19T19:53:05.388Z,73.1
2023-02-19T19:59:05.273Z,73.5
2023-02-19T20:05:07.538Z,73.1
2023-02-19T20:11:05.893Z,73
2023-02-19T20:17:05.905Z,73.2
2023-02-19T20:23:05.310Z,73.1
2023-02-19T20:29:05.233Z,73
2023-02-19T20:35:07.831Z,73
2023-02-19T20:41:05.973Z,73.3
2023-02-19T20:47:05.619Z,73.4
2023-02-19T20:53:05.423Z,73.3
2023-02-19T20:59:05.163Z,73.2
2023-02-19T21:05:07.732Z,72.9
2023-02-19T21:11:06.676Z,73
2023-02-19T21:17:05.629Z,73.1
2023-02-19T21:23:05.646Z,72.5
2023-02-19T21:29:05.901Z,72.2
2023-02-19T21:35:06.369Z,72.8
2023-02-19T21:41:06.334Z,71.5
2023-02-19T21:47:05.252Z,71.1
2023-02-19T21:53:05.649Z,70.5
2023-02-19T21:59:06.387Z,70.5
2023-02-19T22:05:06.707Z,70.1
2023-02-19T22:11:05.791Z,70.2
2023-02-19T22:17:06.579Z,70.7
2023-02-19T22:23:06.033Z,70.3
2023-02-19T22:29:05.236Z,70.3
2023-02-19T22:35:08.310Z,70.3
2023-02-19T22:41:06.488Z,70.4
2023-02-19T22:47:05.611Z,70.7
2023-02-19T22:53:05.789Z,70.8
2023-02-19T22:59:05.669Z,71.6
2023-02-19T23:05:07.598Z,71.9
2023-02-19T23:11:05.435Z,72.2
2023-02-19T23:17:05.817Z,72.3
2023-02-19T23:23:06.188Z,73
2023-02-19T23:29:07.141Z,73.6
2023-02-19T23:35:14.126Z,73.9
2023-02-19T23:41:13.207Z,74.3
2023-02-19T23:47:10.367Z,74.5
2023-02-19T23:53:14.055Z,74.2
2023-02-19T23:59:16.376Z,74.2
